createdAt,value
2023-02-11T00:00:28.169Z,18.23
2023-02-11T00:01:34.048Z,18.45
2023-02-11T00:02:37.272Z,16.73
2023-02-11T00:03:40.380Z,16.48
2023-02-11T00:04:43.515Z,16.73
2023-02-11T00:05:46.681Z,16.62
2023-02-11T00:06:49.682Z,16.67
2023-02-11T00:07:52.820Z,16.67
2023-02-11T00:08:56.634Z,17.25
2023-02-11T00:10:00.262Z,16.77
2023-02-11T00:11:04.069Z,18.15
2023-02-11T00:12:07.096Z,16.95
2023-02-11T00:13:10.055Z,17.02
2023-02-11T00:14:13.140Z,16.85
2023-02-11T00:15:16.148Z,17.40
2023-02-11T00:16:21.866Z,16.87
2023-02-11T00:17:26.133Z,17.00
2023-02-11T00:18:29.184Z,16.95
2023-02-11T00:19:32.366Z,18.23
2023-02-11T00:20:35.349Z,17.37
2023-02-11T00:21:38.460Z,17.08
2023-02-11T00:22:41.589Z,17.08
2023-02-11T00:23:46.226Z,17.20
2023-02-11T00:24:49.345Z,17.35
2023-02-11T00:25:52.839Z,18.02
2023-02-11T00:26:56.389Z,17.73
2023-02-11T00:28:00.020Z,16.98
2023-02-11T00:29:05.030Z,17.25
2023-02-11T00:30:08.981Z,16.83
2023-02-11T00:31:13.228Z,17.95
2023-02-11T00:32:16.381Z,16.40
2023-02-11T00:33:19.500Z,16.35
2023-02-11T00:34:22.828Z,17.23
2023-02-11T00:35:25.923Z,18.00
2023-02-11T00:36:29.906Z,17.05
2023-02-11T00:37:36.696Z,16.80
2023-02-11T00:38:39.897Z,17.95
2023-02-11T00:39:43.033Z,17.23
2023-02-11T00:40:46.197Z,17.90
2023-02-11T00:41:49.323Z,18.12
2023-02-11T00:42:52.520Z,16.98
2023-02-11T00:43:55.487Z,16.10
2023-02-11T00:44:58.673Z,17.67
2023-02-11T00:46:01.686Z,17.45
2023-02-11T00:47:04.815Z,17.45
2023-02-11T00:48:07.822Z,18.40
2023-02-11T00:49:11.150Z,16.45
2023-02-11T00:50:14.230Z,16.67
2023-02-11T00:51:17.775Z,17.77
2023-02-11T00:52:20.877Z,17.08
2023-02-11T00:53:24.168Z,18.10
2023-02-11T00:54:29.873Z,16.70
2023-02-11T00:55:33.188Z,16.80
2023-02-11T00:56:36.350Z,17.48
2023-02-11T00:57:39.384Z,18.05
2023-02-11T00:58:42.589Z,16.58
2023-02-11T00:59:45.667Z,17.00
2023-02-11T01:00:49.570Z,17.75
2023-02-11T01:01:52.851Z,18.37
2023-02-11T01:02:56.359Z,17.10
2023-02-11T01:03:59.550Z,16.35
2023-02-11T01:05:02.761Z,16.08
2023-02-11T01:06:08.211Z,17.77
2023-02-11T01:07:11.579Z,16.00
2023-02-11T01:08:14.667Z,16.83
2023-02-11T01:09:18.159Z,17.23
2023-02-11T01:10:21.285Z,17.37
2023-02-11T01:11:24.463Z,17.27
2023-02-11T01:12:27.498Z,15.43
2023-02-11T01:13:33.058Z,18.23
2023-02-11T01:14:36.122Z,17.25
2023-02-11T01:15:39.422Z,17.62
2023-02-11T01:16:42.663Z,17.10
2023-02-11T01:17:45.940Z,17.58
2023-02-11T01:18:49.676Z,16.42
2023-02-11T01:19:52.870Z,16.48
2023-02-11T01:20:57.115Z,16.80
2023-02-11T01:22:00.257Z,18.17
2023-02-11T01:23:03.346Z,16.77
2023-02-11T01:24:06.918Z,17.30
2023-02-11T01:25:10.665Z,16.40
2023-02-11T01:26:14.161Z,17.02
2023-02-11T01:27:17.494Z,16.12
2023-02-11T01:28:26.470Z,15.00
2023-02-11T01:29:29.422Z,16.33
2023-02-11T01:30:32.709Z,16.70
2023-02-11T01:31:36.074Z,17.05
2023-02-11T01:32:39.265Z,15.95
2023-02-11T01:33:42.462Z,15.80
2023-02-11T01:34:45.456Z,15.23
2023-02-11T01:35:49.018Z,16.05
2023-02-11T01:36:56.862Z,16.55
2023-02-11T01:37:59.885Z,16.33
2023-02-11T01:39:02.975Z,16.45
2023-02-11T01:40:11.621Z,16.50
2023-02-11T01:41:15.462Z,16.48
2023-02-11T01:42:22.650Z,15.18
2023-02-11T01:43:28.428Z,15.68
2023-02-11T01:44:38.264Z,16.00
2023-02-11T01:45:50.044Z,16.12
2023-02-11T01:46:54.170Z,15.95
2023-02-11T01:47:57.623Z,16.35
2023-02-11T01:49:09.916Z,15.90
2023-02-11T01:50:13.661Z,14.45
2023-02-11T01:51:22.476Z,16.33
2023-02-11T01:52:39.405Z,15.27
2023-02-11T01:54:02.406Z,14.90
2023-02-11T01:55:32.856Z,14.25
2023-02-11T01:56:58.823Z,14.48
2023-02-11T01:58:05.554Z,15.32
2023-02-11T01:59:33.624Z,14.13
2023-02-11T02:00:39.306Z,15.43
2023-02-11T02:01:48.860Z,15.52
2023-02-11T02:03:13.474Z,14.40
2023-02-11T02:04:19.391Z,13.93
2023-02-11T02:06:07.424Z,17.05
2023-02-11T02:07:17.514Z,13.85
2023-02-11T02:08:50.621Z,15.52
2023-02-11T02:10:06.285Z,14.87
2023-02-11T02:11:10.023Z,14.35
2023-02-11T02:12:12.988Z,15.63
2023-02-11T02:13:16.519Z,16.00
2023-02-11T02:14:19.925Z,14.95
2023-02-11T02:15:26.734Z,14.65
2023-02-11T02:16:36.776Z,15.65
2023-02-11T02:17:57.495Z,15.52
2023-02-11T02:19:07.014Z,15.25
2023-02-11T02:20:10.144Z,13.93
2023-02-11T02:21:34.967Z,13.65
2023-02-11T02:23:03.844Z,14.77
2023-02-11T02:24:45.053Z,13.88
2023-02-11T02:26:09.451Z,13.88
2023-02-11T02:27:18.704Z,13.82
2023-02-11T02:28:59.630Z,14.68
2023-02-11T02:30:46.343Z,14.13
2023-02-11T02:32:37.337Z,13.15
2023-02-11T02:33:43.365Z,12.52
2023-02-11T02:35:10.544Z,13.95
2023-02-11T02:36:35.054Z,14.02
2023-02-11T02:37:43.865Z,15.25
2023-02-11T02:38:54.978Z,14.10
2023-02-11T02:40:03.660Z,15.30
2023-02-11T02:41:17.145Z,15.43
2023-02-11T02:42:21.363Z,14.52
2023-02-11T02:43:27.871Z,13.88
2023-02-11T02:44:31.644Z,13.02
2023-02-11T02:45:34.778Z,14.90
2023-02-11T02:46:38.018Z,13.32
2023-02-11T02:47:41.383Z,14.87
2023-02-11T02:48:45.786Z,14.70
2023-02-11T02:49:48.824Z,13.75
2023-02-11T02:51:00.698Z,15.65
2023-02-11T02:52:47.881Z,14.70
2023-02-11T02:54:09.581Z,13.65
2023-02-11T02:55:35.378Z,14.35
2023-02-11T02:56:52.141Z,14.10
2023-02-11T02:58:31.084Z,13.68
2023-02-11T02:59:58.874Z,13.30
2023-02-11T03:01:14.113Z,14.27
2023-02-11T03:02:47.404Z,15.25
2023-02-11T03:04:05.931Z,13.07
2023-02-11T03:05:35.660Z,13.75
2023-02-11T03:06:58.781Z,14.68
2023-02-11T03:08:16.629Z,13.15
2023-02-11T03:09:40.353Z,14.02
2023-02-11T03:10:50.957Z,13.98
2023-02-11T03:11:54.448Z,13.43
2023-02-11T03:12:58.571Z,13.93
2023-02-11T03:14:05.093Z,12.95
2023-02-11T03:15:09.168Z,13.98
2023-02-11T03:16:18.694Z,13.85
2023-02-11T03:17:24.040Z,13.32
2023-02-11T03:18:30.125Z,13.48
2023-02-11T03:19:44.190Z,12.45
2023-02-11T03:20:52.671Z,13.23
2023-02-11T03:21:57.673Z,12.27
2023-02-11T03:23:13.608Z,14.00
2023-02-11T03:24:24.754Z,13.30
2023-02-11T03:25:34.120Z,14.43
2023-02-11T03:26:49.132Z,13.65
2023-02-11T03:28:18.602Z,12.52
2023-02-11T03:29:44.449Z,11.57
2023-02-11T03:31:05.985Z,12.15
2023-02-11T03:32:25.261Z,12.90
2023-02-11T03:33:33.801Z,12.43
2023-02-11T03:34:45.883Z,13.43
2023-02-11T03:35:57.059Z,12.75
2023-02-11T03:37:14.912Z,12.70
2023-02-11T03:38:26.540Z,12.50
2023-02-11T03:39:36.873Z,13.60
2023-02-11T03:40:43.941Z,13.18
2023-02-11T03:41:49.305Z,12.57
2023-02-11T03:42:58.978Z,12.93
2023-02-11T03:44:03.378Z,13.40
2023-02-11T03:45:11.196Z,12.63
2023-02-11T03:46:18.071Z,12.65
2023-02-11T03:47:26.387Z,14.07
2023-02-11T03:48:37.347Z,13.85
2023-02-11T03:49:43.843Z,12.75
2023-02-11T03:50:48.713Z,12.37
2023-02-11T03:51:55.249Z,13.88
2023-02-11T03:53:02.443Z,12.00
2023-02-11T03:54:09.902Z,13.40
2023-02-11T03:55:17.906Z,12.55
2023-02-11T03:56:24.069Z,13.52
2023-02-11T03:57:27.310Z,13.00
2023-02-11T03:58:31.151Z,13.02
2023-02-11T03:59:54.208Z,13.40
2023-02-11T04:00:57.548Z,13.60
2023-02-11T04:02:00.732Z,13.32
2023-02-11T04:03:07.663Z,13.60
2023-02-11T04:04:11.235Z,13.23
2023-02-11T04:05:16.722Z,13.07
2023-02-11T04:06:19.934Z,13.75
2023-02-11T04:07:23.655Z,13.48
2023-02-11T04:08:26.918Z,13.98
2023-02-11T04:09:30.375Z,12.45
2023-02-11T04:10:34.088Z,13.57
2023-02-11T04:11:37.225Z,12.73
2023-02-11T04:12:40.423Z,13.00
2023-02-11T04:13:43.367Z,12.75
2023-02-11T04:14:46.444Z,13.73
2023-02-11T04:15:49.781Z,12.40
2023-02-11T04:16:53.126Z,13.05
2023-02-11T04:17:56.058Z,13.20
2023-02-11T04:18:59.306Z,13.10
2023-02-11T04:20:02.505Z,13.38
2023-02-11T04:21:05.932Z,13.60
2023-02-11T04:22:09.468Z,12.45
2023-02-11T04:23:12.698Z,13.57
2023-02-11T04:24:15.901Z,13.02
2023-02-11T04:25:18.975Z,13.23
2023-02-11T04:26:22.081Z,13.13
2023-02-11T04:27:25.205Z,13.18
2023-02-11T04:28:29.925Z,13.55
2023-02-11T04:29:33.115Z,13.55
2023-02-11T04:30:36.292Z,12.68
2023-02-11T04:31:39.235Z,12.25
2023-02-11T04:32:42.401Z,12.73
2023-02-11T04:33:45.428Z,14.40
2023-02-11T04:34:48.671Z,12.40
2023-02-11T04:35:52.004Z,13.62
2023-02-11T04:36:55.431Z,13.07
2023-02-11T04:37:58.698Z,12.40
2023-02-11T04:39:01.936Z,14.45
2023-02-11T04:40:05.396Z,13.85
2023-02-11T04:41:08.457Z,12.13
2023-02-11T04:42:11.630Z,14.52
2023-02-11T04:43:14.628Z,13.25
2023-02-11T04:44:17.680Z,13.75
2023-02-11T04:45:20.861Z,13.38
2023-02-11T04:46:23.886Z,13.93
2023-02-11T04:47:26.857Z,14.45
2023-02-11T04:48:29.986Z,13.70
2023-02-11T04:49:33.184Z,12.65
2023-02-11T04:50:36.352Z,14.13
2023-02-11T04:51:39.498Z,14.23
2023-02-11T04:52:42.488Z,13.55
2023-02-11T04:53:45.485Z,12.98
2023-02-11T04:54:48.428Z,12.63
2023-02-11T04:55:51.820Z,13.57
2023-02-11T04:56:55.077Z,13.32
2023-02-11T04:57:58.239Z,12.63
2023-02-11T04:59:01.438Z,13.73
2023-02-11T05:00:05.497Z,13.43
2023-02-11T05:01:10.494Z,12.68
2023-02-11T05:02:13.504Z,12.48
2023-02-11T05:03:16.958Z,13.25
2023-02-11T05:04:20.246Z,13.15
2023-02-11T05:05:23.296Z,13.50
2023-02-11T05:06:26.519Z,14.48
2023-02-11T05:07:29.604Z,13.57
2023-02-11T05:08:33.258Z,13.60
2023-02-11T05:09:36.338Z,14.02
2023-02-11T05:10:39.501Z,14.63
2023-02-11T05:11:42.932Z,14.02
2023-02-11T05:12:48.880Z,12.85
2023-02-11T05:13:52.433Z,14.45
2023-02-11T05:14:55.500Z,13.35
2023-02-11T05:15:58.828Z,14.07
2023-02-11T05:17:01.810Z,14.00
2023-02-11T05:18:05.156Z,12.90
2023-02-11T05:19:09.103Z,12.75
2023-02-11T05:20:12.388Z,13.30
2023-02-11T05:21:18.861Z,14.00
2023-02-11T05:22:22.396Z,12.32
2023-02-11T05:23:25.384Z,13.77
2023-02-11T05:24:28.380Z,13.32
2023-02-11T05:25:31.384Z,14.15
2023-02-11T05:26:34.479Z,14.68
2023-02-11T05:27:37.429Z,12.98
2023-02-11T05:28:41.547Z,13.55
2023-02-11T05:29:44.827Z,13.32
2023-02-11T05:30:48.137Z,14.13
2023-02-11T05:31:51.283Z,14.38
2023-02-11T05:32:54.631Z,14.10
2023-02-11T05:33:57.738Z,13.52
2023-02-11T05:35:00.973Z,14.25
2023-02-11T05:36:08.549Z,13.35
2023-02-11T05:37:12.165Z,12.77
2023-02-11T05:38:15.508Z,14.68
2023-02-11T05:39:18.586Z,14.13
2023-02-11T05:40:21.880Z,14.52
2023-02-11T05:41:24.965Z,14.73
2023-02-11T05:42:28.310Z,13.98
2023-02-11T05:43:31.541Z,14.35
2023-02-11T05:44:34.579Z,14.85
2023-02-11T05:45:37.667Z,14.27
2023-02-11T05:46:40.788Z,14.25
2023-02-11T05:47:44.716Z,12.90
2023-02-11T05:48:47.921Z,13.75
2023-02-11T05:49:53.959Z,14.15
2023-02-11T05:50:57.301Z,14.18
2023-02-11T05:52:00.457Z,13.50
2023-02-11T05:53:03.643Z,13.00
2023-02-11T05:54:06.983Z,13.82
2023-02-11T05:55:09.905Z,13.23
2023-02-11T05:56:14.949Z,13.32
2023-02-11T05:57:18.625Z,13.82
2023-02-11T05:58:21.686Z,13.68
2023-02-11T05:59:24.996Z,14.32
2023-02-11T06:00:28.026Z,14.25
2023-02-11T06:01:31.204Z,15.13
2023-02-11T06:02:34.759Z,13.70
2023-02-11T06:03:38.036Z,14.00
2023-02-11T06:04:41.841Z,13.13
2023-02-11T06:05:45.921Z,15.27
2023-02-11T06:06:49.648Z,14.70
2023-02-11T06:07:53.580Z,13.43
2023-02-11T06:08:56.790Z,13.50
2023-02-11T06:09:59.898Z,14.05
2023-02-11T06:11:03.028Z,12.18
2023-02-11T06:12:06.600Z,13.85
2023-02-11T06:13:09.769Z,14.15
2023-02-11T06:14:12.840Z,14.57
2023-02-11T06:15:15.948Z,13.10
2023-02-11T06:16:19.269Z,13.88
2023-02-11T06:17:23.581Z,14.02
2023-02-11T06:18:26.981Z,14.07
2023-02-11T06:19:31.357Z,12.68
2023-02-11T06:20:34.536Z,13.98
2023-02-11T06:21:43.932Z,14.02
2023-02-11T06:22:47.532Z,14.07
2023-02-11T06:23:50.715Z,13.07
2023-02-11T06:25:01.327Z,12.65
2023-02-11T06:26:07.152Z,13.45
2023-02-11T06:27:10.164Z,13.65
2023-02-11T06:28:13.557Z,14.50
2023-02-11T06:29:16.787Z,14.68
2023-02-11T06:30:19.848Z,14.80
2023-02-11T06:31:22.817Z,14.27
2023-02-11T06:32:45.533Z,14.38
2023-02-11T06:33:50.455Z,13.82
2023-02-11T06:34:53.499Z,14.50
2023-02-11T06:35:56.525Z,13.07
2023-02-11T06:36:59.777Z,12.63
2023-02-11T06:38:02.966Z,13.10
2023-02-11T06:39:06.274Z,13.62
2023-02-11T06:40:11.478Z,13.70
2023-02-11T06:41:16.693Z,13.90
2023-02-11T06:42:19.750Z,13.48
2023-02-11T06:43:23.249Z,13.52
2023-02-11T06:44:26.330Z,13.60
2023-02-11T06:45:29.473Z,13.90
2023-02-11T06:46:32.761Z,15.23
2023-02-11T06:47:35.981Z,14.02
2023-02-11T06:48:39.080Z,14.32
2023-02-11T06:49:42.464Z,13.60
2023-02-11T06:50:45.577Z,13.70
2023-02-11T06:51:48.624Z,14.87
2023-02-11T06:52:51.673Z,13.20
2023-02-11T06:53:55.494Z,13.60
2023-02-11T06:54:58.606Z,14.55
2023-02-11T06:56:06.674Z,13.38
2023-02-11T06:57:09.840Z,14.43
2023-02-11T06:58:13.230Z,13.35
2023-02-11T06:59:18.736Z,14.35
2023-02-11T07:00:21.926Z,13.50
2023-02-11T07:01:26.201Z,13.75
2023-02-11T07:02:29.825Z,15.35
2023-02-11T07:03:36.497Z,14.35
2023-02-11T07:04:39.377Z,13.18
2023-02-11T07:05:44.989Z,14.20
2023-02-11T07:06:48.209Z,13.73
2023-02-11T07:07:51.609Z,13.88
2023-02-11T07:08:56.037Z,12.10
2023-02-11T07:09:58.941Z,14.10
2023-02-11T07:11:02.168Z,11.77
2023-02-11T07:12:05.349Z,15.15
2023-02-11T07:13:08.529Z,13.02
2023-02-11T07:14:13.600Z,13.57
2023-02-11T07:15:16.770Z,13.77
2023-02-11T07:16:20.512Z,13.95
2023-02-11T07:17:23.773Z,13.68
2023-02-11T07:18:26.915Z,14.13
2023-02-11T07:19:29.993Z,13.32
2023-02-11T07:20:33.155Z,13.18
2023-02-11T07:21:36.330Z,14.18
2023-02-11T07:22:39.314Z,14.05
2023-02-11T07:23:42.742Z,14.05
2023-02-11T07:24:46.200Z,15.43
2023-02-11T07:25:49.594Z,15.30
2023-02-11T07:26:54.040Z,14.27
2023-02-11T07:27:57.276Z,15.77
2023-02-11T07:29:00.445Z,14.43
2023-02-11T07:30:07.252Z,16.50
2023-02-11T07:31:22.652Z,14.77
2023-02-11T07:32:25.654Z,16.12
2023-02-11T07:33:28.659Z,15.60
2023-02-11T07:34:31.940Z,16.05
2023-02-11T07:35:35.088Z,16.37
2023-02-11T07:36:38.403Z,15.75
2023-02-11T07:37:41.953Z,15.82
2023-02-11T07:38:45.244Z,15.75
2023-02-11T07:39:48.560Z,15.55
2023-02-11T07:40:51.681Z,14.75
2023-02-11T07:41:55.329Z,16.05
2023-02-11T07:42:58.463Z,15.65
2023-02-11T07:44:04.008Z,16.08
2023-02-11T07:45:08.123Z,18.60
2023-02-11T07:46:25.691Z,16.70
2023-02-11T07:47:28.836Z,15.93
2023-02-11T07:48:32.372Z,15.48
2023-02-11T07:49:35.503Z,15.73
2023-02-11T07:50:38.643Z,15.90
2023-02-11T07:51:42.260Z,14.75
2023-02-11T07:52:45.258Z,15.18
2023-02-11T07:53:48.421Z,14.80
2023-02-11T07:54:51.619Z,15.65
2023-02-11T07:55:54.626Z,15.18
2023-02-11T07:56:57.660Z,14.68
2023-02-11T07:58:00.710Z,16.12
2023-02-11T07:59:04.305Z,16.42
2023-02-11T08:00:08.142Z,15.75
2023-02-11T08:01:14.580Z,15.90
2023-02-11T08:02:17.642Z,15.90
2023-02-11T08:03:20.724Z,15.95
2023-02-11T08:04:23.997Z,15.55
2023-02-11T08:05:27.033Z,15.52
2023-02-11T08:06:33.054Z,16.33
2023-02-11T08:07:36.102Z,17.42
2023-02-11T08:08:39.477Z,16.37
2023-02-11T08:09:42.823Z,16.48
2023-02-11T08:10:45.912Z,17.02
2023-02-11T08:11:49.000Z,18.15
2023-02-11T08:12:52.161Z,18.40
2023-02-11T08:13:56.630Z,19.33
2023-02-11T08:14:59.873Z,21.00
2023-02-11T08:16:05.751Z,20.77
2023-02-11T08:17:08.878Z,19.05
2023-02-11T08:18:11.813Z,18.05
2023-02-11T08:19:17.112Z,18.30
2023-02-11T08:20:20.063Z,17.62
2023-02-11T08:21:24.785Z,17.10
2023-02-11T08:22:27.706Z,17.15
2023-02-11T08:23:30.659Z,16.58
2023-02-11T08:24:33.762Z,17.98
2023-02-11T08:25:37.003Z,16.12
2023-02-11T08:26:41.287Z,16.70
2023-02-11T08:27:44.398Z,17.90
2023-02-11T08:28:49.029Z,15.95
2023-02-11T08:29:52.855Z,17.77
2023-02-11T08:30:55.963Z,16.83
2023-02-11T08:31:59.067Z,17.90
2023-02-11T08:33:02.564Z,17.50
2023-02-11T08:34:05.963Z,18.40
2023-02-11T08:35:09.740Z,17.60
2023-02-11T08:36:16.614Z,17.05
2023-02-11T08:37:20.611Z,18.02
2023-02-11T08:38:23.761Z,17.12
2023-02-11T08:39:26.682Z,16.58
2023-02-11T08:40:29.950Z,17.60
2023-02-11T08:41:33.722Z,16.52
2023-02-11T08:42:37.042Z,18.45
2023-02-11T08:43:41.955Z,17.45
2023-02-11T08:44:45.090Z,17.37
2023-02-11T08:45:48.109Z,17.02
2023-02-11T08:46:52.165Z,17.37
2023-02-11T08:47:55.407Z,17.33
2023-02-11T08:48:58.689Z,17.35
2023-02-11T08:50:01.811Z,18.25
2023-02-11T08:51:13.679Z,18.48
2023-02-11T08:52:16.756Z,17.83
2023-02-11T08:53:19.872Z,18.77
2023-02-11T08:54:22.918Z,16.83
2023-02-11T08:55:26.386Z,18.08
2023-02-11T08:56:31.616Z,16.52
2023-02-11T08:57:34.796Z,17.45
2023-02-11T08:58:38.155Z,16.00
2023-02-11T08:59:41.331Z,17.87
2023-02-11T09:00:45.637Z,16.75
2023-02-11T09:01:48.852Z,17.08
2023-02-11T09:02:52.158Z,16.40
2023-02-11T09:03:55.863Z,17.48
2023-02-11T09:04:59.024Z,18.52
2023-02-11T09:06:06.971Z,17.15
2023-02-11T09:07:10.036Z,16.50
2023-02-11T09:08:14.124Z,17.05
2023-02-11T09:09:17.935Z,17.33
2023-02-11T09:10:20.967Z,17.27
2023-02-11T09:11:33.597Z,17.23
2023-02-11T09:12:36.838Z,17.70
2023-02-11T09:13:42.739Z,16.08
2023-02-11T09:14:45.730Z,18.12
2023-02-11T09:15:48.824Z,16.95
2023-02-11T09:16:53.524Z,18.05
2023-02-11T09:17:56.985Z,16.37
2023-02-11T09:19:02.222Z,16.27
2023-02-11T09:20:05.647Z,15.52
2023-02-11T09:21:10.300Z,16.55
2023-02-11T09:22:13.411Z,17.40
2023-02-11T09:23:18.568Z,17.40
2023-02-11T09:24:21.662Z,16.98
2023-02-11T09:25:25.381Z,15.90
2023-02-11T09:26:31.188Z,16.52
2023-02-11T09:27:34.900Z,17.05
2023-02-11T09:28:38.008Z,17.62
2023-02-11T09:29:41.224Z,17.90
2023-02-11T09:30:44.568Z,17.12
2023-02-11T09:31:47.782Z,18.70
2023-02-11T09:32:51.169Z,19.27
2023-02-11T09:33:57.373Z,17.73
2023-02-11T09:35:00.591Z,18.70
2023-02-11T09:36:05.062Z,16.52
2023-02-11T09:37:08.919Z,18.65
2023-02-11T09:38:11.912Z,18.00
2023-02-11T09:39:18.166Z,18.08
2023-02-11T09:40:21.713Z,18.45
2023-02-11T09:41:24.777Z,17.60
2023-02-11T09:42:46.676Z,17.50
2023-02-11T09:43:56.452Z,17.52
2023-02-11T09:45:01.570Z,18.08
2023-02-11T09:46:05.932Z,17.87
2023-02-11T09:47:36.456Z,17.80
2023-02-11T09:48:43.320Z,17.70
2023-02-11T09:49:50.869Z,17.92
2023-02-11T09:50:59.086Z,17.85
2023-02-11T09:52:07.643Z,18.40
2023-02-11T09:53:14.736Z,19.35
2023-02-11T09:54:34.839Z,18.30
2023-02-11T09:55:43.466Z,18.17
2023-02-11T09:56:46.716Z,16.98
2023-02-11T09:57:49.992Z,19.62
2023-02-11T09:58:54.822Z,17.45
2023-02-11T09:59:58.370Z,18.25
2023-02-11T10:01:59.104Z,19.45
2023-02-11T10:03:26.847Z,19.48
2023-02-11T10:04:38.146Z,17.48
2023-02-11T10:06:06.393Z,17.08
2023-02-11T10:07:15.244Z,18.55
2023-02-11T10:08:41.711Z,17.45
2023-02-11T10:10:20.261Z,18.00
2023-02-11T10:11:49.510Z,17.98
2023-02-11T10:13:04.068Z,17.67
2023-02-11T10:14:06.978Z,17.25
2023-02-11T10:15:21.952Z,18.25
2023-02-11T10:16:48.858Z,17.27
2023-02-11T10:18:32.348Z,17.62
2023-02-11T10:20:09.039Z,18.15
2023-02-11T10:21:36.553Z,18.40
2023-02-11T10:22:49.677Z,18.60
2023-02-11T10:23:57.617Z,17.83
2023-02-11T10:25:01.242Z,17.40
2023-02-11T10:26:12.113Z,17.73
2023-02-11T10:27:20.165Z,17.62
2023-02-11T10:28:51.675Z,17.02
2023-02-11T10:30:05.366Z,18.98
2023-02-11T10:31:44.020Z,18.00
2023-02-11T10:33:04.840Z,18.67
2023-02-11T10:34:13.421Z,17.35
2023-02-11T10:35:21.778Z,17.37
2023-02-11T10:36:30.506Z,18.15
2023-02-11T10:37:33.825Z,18.15
2023-02-11T10:38:37.461Z,19.37
2023-02-11T10:39:41.563Z,19.12
2023-02-11T10:40:44.810Z,18.27
2023-02-11T10:42:12.490Z,18.77
2023-02-11T10:43:27.233Z,17.10
2023-02-11T10:44:37.925Z,17.90
2023-02-11T10:45:45.756Z,17.95
2023-02-11T10:46:50.305Z,17.65
2023-02-11T10:47:53.435Z,18.98
2023-02-11T10:48:56.553Z,19.37
2023-02-11T10:50:03.905Z,19.50
2023-02-11T10:51:17.879Z,17.87
2023-02-11T10:52:26.773Z,18.30
2023-02-11T10:53:29.721Z,18.02
2023-02-11T10:54:32.695Z,18.17
2023-02-11T10:55:36.442Z,18.77
2023-02-11T10:56:46.081Z,19.37
2023-02-11T10:57:57.330Z,17.48
2023-02-11T10:59:14.854Z,20.17
2023-02-11T11:00:43.975Z,17.62
2023-02-11T11:01:50.716Z,18.08
2023-02-11T11:02:57.966Z,20.45
2023-02-11T11:04:01.267Z,18.27
2023-02-11T11:05:16.530Z,19.12
2023-02-11T11:06:32.043Z,18.62
2023-02-11T11:07:35.507Z,18.15
2023-02-11T11:08:48.301Z,17.75
2023-02-11T11:09:53.522Z,20.08
2023-02-11T11:11:07.567Z,19.67
2023-02-11T11:12:42.209Z,17.70
2023-02-11T11:13:58.385Z,18.77
2023-02-11T11:15:19.257Z,18.87
2023-02-11T11:16:30.688Z,17.42
2023-02-11T11:17:33.907Z,17.80
2023-02-11T11:18:37.115Z,17.30
2023-02-11T11:19:40.417Z,16.77
2023-02-11T11:21:01.811Z,18.05
2023-02-11T11:22:05.280Z,17.90
2023-02-11T11:23:28.544Z,18.17
2023-02-11T11:24:46.980Z,16.58
2023-02-11T11:26:11.723Z,16.95
2023-02-11T11:27:26.341Z,16.08
2023-02-11T11:28:33.549Z,15.13
2023-02-11T11:29:43.228Z,14.52
2023-02-11T11:30:46.420Z,14.10
2023-02-11T11:31:57.246Z,13.85
2023-02-11T11:33:01.456Z,14.02
2023-02-11T11:34:32.797Z,13.30
2023-02-11T11:35:35.926Z,12.53
2023-02-11T11:36:40.631Z,14.80
2023-02-11T11:37:46.003Z,15.13
2023-02-11T11:39:02.446Z,13.60
2023-02-11T11:40:25.153Z,14.30
2023-02-11T11:41:31.108Z,12.75
2023-02-11T11:42:37.117Z,13.52
2023-02-11T11:43:40.318Z,14.10
2023-02-11T11:44:59.662Z,13.02
2023-02-11T11:46:03.285Z,14.65
2023-02-11T11:47:12.202Z,13.43
2023-02-11T11:48:24.478Z,12.57
2023-02-11T11:49:36.101Z,13.10
2023-02-11T11:51:00.022Z,12.77
2023-02-11T11:52:38.237Z,13.30
2023-02-11T11:54:00.845Z,12.90
2023-02-11T11:55:17.584Z,11.80
2023-02-11T11:56:25.380Z,12.75
2023-02-11T11:57:30.853Z,12.85
2023-02-11T11:58:35.379Z,12.80
2023-02-11T11:59:41.913Z,12.65
2023-02-11T12:01:21.709Z,12.20
2023-02-11T12:02:40.278Z,12.50
2023-02-11T12:03:52.391Z,12.63
2023-02-11T12:04:55.521Z,12.25
2023-02-11T12:06:16.730Z,12.55
2023-02-11T12:07:35.162Z,13.55
2023-02-11T12:08:50.017Z,12.10
2023-02-11T12:10:14.935Z,12.50
2023-02-11T12:11:33.664Z,11.95
2023-02-11T12:12:53.731Z,11.65
2023-02-11T12:14:18.012Z,11.93
2023-02-11T12:15:40.043Z,13.02
2023-02-11T12:18:24.683Z,14.15
2023-02-11T12:19:36.229Z,12.95
2023-02-11T12:20:53.978Z,12.90
2023-02-11T12:22:37.790Z,12.40
2023-02-11T12:23:54.275Z,12.40
2023-02-11T12:25:25.424Z,12.35
2023-02-11T12:26:41.199Z,12.20
2023-02-11T12:27:57.220Z,10.77
2023-02-11T12:29:07.093Z,12.48
2023-02-11T12:30:24.987Z,12.35
2023-02-11T12:32:07.683Z,12.13
2023-02-11T12:33:21.044Z,12.23
2023-02-11T12:34:42.394Z,11.50
2023-02-11T12:35:55.533Z,12.48
2023-02-11T12:37:10.881Z,12.35
2023-02-11T12:38:27.389Z,11.93
2023-02-11T12:39:43.387Z,11.55
2023-02-11T12:41:42.420Z,11.15
2023-02-11T12:43:11.266Z,10.80
2023-02-11T12:44:31.677Z,11.10
2023-02-11T12:46:03.300Z,9.82
2023-02-11T12:47:49.789Z,10.32
2023-02-11T12:49:21.803Z,10.25
2023-02-11T12:50:57.452Z,10.30
2023-02-11T12:52:30.366Z,9.77
2023-02-11T12:53:44.873Z,9.50
2023-02-11T12:55:04.429Z,10.43
2023-02-11T12:56:31.420Z,10.98
2023-02-11T12:57:38.528Z,9.80
2023-02-11T12:58:45.567Z,10.60
2023-02-11T13:00:14.900Z,10.43
2023-02-11T13:01:26.844Z,9.50
2023-02-11T13:03:05.581Z,10.23
2023-02-11T13:04:17.883Z,9.50
2023-02-11T13:05:30.636Z,10.32
2023-02-11T13:06:45.925Z,10.90
2023-02-11T13:07:53.186Z,10.30
2023-02-11T13:09:03.355Z,10.27
2023-02-11T13:10:26.781Z,10.48
2023-02-11T13:11:38.197Z,10.40
2023-02-11T13:13:05.108Z,10.68
2023-02-11T13:14:26.596Z,9.90
2023-02-11T13:15:31.227Z,10.38
2023-02-11T13:16:41.980Z,10.50
2023-02-11T13:18:01.894Z,10.60
2023-02-11T13:19:13.859Z,10.52
2023-02-11T13:20:28.949Z,10.23
2023-02-11T13:21:45.109Z,10.50
2023-02-11T13:23:03.602Z,10.43
2023-02-11T13:24:34.836Z,9.40
2023-02-11T13:25:50.398Z,9.52
2023-02-11T13:27:05.866Z,10.73
2023-02-11T13:28:27.041Z,9.32
2023-02-11T13:30:12.239Z,9.90
2023-02-11T13:31:17.380Z,10.00
2023-02-11T13:32:21.422Z,10.40
2023-02-11T13:33:37.179Z,10.88
2023-02-11T13:34:43.040Z,10.13
2023-02-11T13:35:58.533Z,10.73
2023-02-11T13:37:02.716Z,10.43
2023-02-11T13:38:19.047Z,10.23
2023-02-11T13:39:23.798Z,9.90
2023-02-11T13:40:39.596Z,9.75
2023-02-11T13:41:52.470Z,11.52
2023-02-11T13:43:03.321Z,9.73
2023-02-11T13:44:27.963Z,9.70
2023-02-11T13:45:43.659Z,10.80
2023-02-11T13:46:50.256Z,10.98
2023-02-11T13:48:02.598Z,10.05
2023-02-11T13:49:06.211Z,10.40
2023-02-11T13:50:25.389Z,10.73
2023-02-11T13:51:43.157Z,9.55
2023-02-11T13:53:02.072Z,10.13
2023-02-11T13:54:08.016Z,10.90
2023-02-11T13:55:14.762Z,10.23
2023-02-11T13:56:35.970Z,10.13
2023-02-11T13:57:41.135Z,9.73
2023-02-11T13:58:49.482Z,11.12
2023-02-11T13:59:59.519Z,9.65
2023-02-11T14:01:02.805Z,10.38
2023-02-11T14:02:42.583Z,10.68
2023-02-11T14:04:36.982Z,10.05
2023-02-11T14:06:27.950Z,11.02
2023-02-11T14:07:52.668Z,10.75
2023-02-11T14:09:09.979Z,10.27
2023-02-11T14:10:45.891Z,9.15
2023-02-11T14:11:52.318Z,10.43
2023-02-11T14:13:26.112Z,10.18
2023-02-11T14:14:34.157Z,9.50
2023-02-11T14:15:41.560Z,9.32
2023-02-11T14:17:04.786Z,10.52
2023-02-11T14:18:38.404Z,10.70
2023-02-11T14:19:47.102Z,10.07
2023-02-11T14:20:51.936Z,11.07
2023-02-11T14:22:12.434Z,10.88
2023-02-11T14:23:24.980Z,10.50
2023-02-11T14:24:28.222Z,11.07
2023-02-11T14:25:33.067Z,10.68
2023-02-11T14:26:58.891Z,10.75
2023-02-11T14:28:16.110Z,11.15
2023-02-11T14:29:37.678Z,9.57
2023-02-11T14:30:52.371Z,10.52
2023-02-11T14:32:04.053Z,9.95
2023-02-11T14:33:35.335Z,10.82
2023-02-11T14:34:42.235Z,10.65
2023-02-11T14:36:03.354Z,10.00
2023-02-11T14:37:27.285Z,11.73
2023-02-11T14:38:56.495Z,11.90
2023-02-11T14:40:27.160Z,11.95
2023-02-11T14:41:37.426Z,11.95
2023-02-11T14:42:41.311Z,11.88
2023-02-11T14:43:48.445Z,11.50
2023-02-11T14:44:56.514Z,11.52
2023-02-11T14:46:02.070Z,11.55
2023-02-11T14:47:06.506Z,11.43
2023-02-11T14:48:17.616Z,12.35
2023-02-11T14:49:29.138Z,11.75
2023-02-11T14:50:49.027Z,11.45
2023-02-11T14:52:00.192Z,10.77
2023-02-11T14:53:06.703Z,10.98